sensor_id;sensor_type;location;lat;lon;timestamp;P1;durP1;ratioP1;P2;durP2;ratioP2
71965;SDS011;59836;52.132;5.442;2022-09-01T00:00:23;1.27;;;0.77;;
71965;SDS011;59836;52.132;5.442;2022-09-01T00:02:54;1.52;;;1.05;;
71965;SDS011;59836;52.132;5.442;2022-09-01T00:05:21;1.30;;;1.08;;
71965;SDS011;59836;52.132;5.442;2022-09-01T00:07:48;3.58;;;1.10;;
71965;SDS011;59836;52.132;5.442;2022-09-01T00:10:26;2.17;;;1.33;;
71965;SDS011;59836;52.132;5.442;2022-09-01T00:12:54;1.70;;;1.10;;
71965;SDS011;59836;52.132;5.442;2022-09-01T00:15:20;3.05;;;1.05;;
71965;SDS011;59836;52.132;5.442;2022-09-01T00:18:00;2.42;;;1.10;;
71965;SDS011;59836;52.132;5.442;2022-09-01T00:20:46;2.00;;;0.90;;
71965;SDS011;59836;52.132;5.442;2022-09-01T00:23:24;2.40;;;1.10;;
71965;SDS011;59836;52.132;5.442;2022-09-01T00:26:02;2.43;;;1.13;;
71965;SDS011;59836;52.132;5.442;2022-09-01T00:28:28;2.58;;;0.85;;
71965;SDS011;59836;52.132;5.442;2022-09-01T00:31:00;1.80;;;1.30;;
71965;SDS011;59836;52.132;5.442;2022-09-01T00:33:31;2.85;;;1.15;;
71965;SDS011;59836;52.132;5.442;2022-09-01T00:35:58;1.88;;;0.90;;
71965;SDS011;59836;52.132;5.442;2022-09-01T00:38:28;2.83;;;1.10;;
71965;SDS011;59836;52.132;5.442;2022-09-01T00:41:11;3.70;;;1.15;;
71965;SDS011;59836;52.132;5.442;2022-09-01T00:43:56;2.20;;;1.50;;
71965;SDS011;59836;52.132;5.442;2022-09-01T00:46:29;1.77;;;1.40;;
71965;SDS011;59836;52.132;5.442;2022-09-01T00:52:30;5.30;;;1.50;;
71965;SDS011;59836;52.132;5.442;2022-09-01T00:55:07;1.83;;;1.15;;
71965;SDS011;59836;52.132;5.442;2022-09-01T00:57:54;2.17;;;1.60;;
71965;SDS011;59836;52.132;5.442;2022-09-01T01:00:23;3.03;;;1.23;;
71965;SDS011;59836;52.132;5.442;2022-09-01T01:03:04;2.22;;;1.30;;
71965;SDS011;59836;52.132;5.442;2022-09-01T01:05:39;3.30;;;1.40;;
71965;SDS011;59836;52.132;5.442;2022-09-01T01:08:11;1.70;;;1.40;;
71965;SDS011;59836;52.132;5.442;2022-09-01T01:10:40;1.95;;;1.33;;
71965;SDS011;59836;52.132;5.442;2022-09-01T01:16:11;2.28;;;1.40;;
71965;SDS011;59836;52.132;5.442;2022-09-01T01:18:41;2.33;;;0.90;;
71965;SDS011;59836;52.132;5.442;2022-09-01T01:24:33;2.22;;;1.70;;
71965;SDS011;59836;52.132;5.442;2022-09-01T01:27:01;3.83;;;1.13;;
71965;SDS011;59836;52.132;5.442;2022-09-01T01:32:40;3.27;;;1.80;;
71965;SDS011;59836;52.132;5.442;2022-09-01T01:35:09;2.75;;;1.48;;
71965;SDS011;59836;52.132;5.442;2022-09-01T01:37:43;4.70;;;1.20;;
71965;SDS011;59836;52.132;5.442;2022-09-01T01:40:19;2.97;;;1.20;;
71965;SDS011;59836;52.132;5.442;2022-09-01T01:45:40;3.67;;;1.37;;
71965;SDS011;59836;52.132;5.442;2022-09-01T01:50:51;2.30;;;1.50;;
71965;SDS011;59836;52.132;5.442;2022-09-01T01:53:30;1.80;;;1.27;;
71965;SDS011;59836;52.132;5.442;2022-09-01T01:56:16;2.10;;;1.40;;
71965;SDS011;59836;52.132;5.442;2022-09-01T01:58:43;1.77;;;1.40;;
71965;SDS011;59836;52.132;5.442;2022-09-01T02:01:10;2.30;;;1.40;;
71965;SDS011;59836;52.132;5.442;2022-09-01T02:03:44;2.15;;;1.70;;
71965;SDS011;59836;52.132;5.442;2022-09-01T02:06:27;1.98;;;1.30;;
71965;SDS011;59836;52.132;5.442;2022-09-01T02:08:59;3.50;;;1.80;;
71965;SDS011;59836;52.132;5.442;2022-09-01T02:11:29;4.20;;;1.47;;
71965;SDS011;59836;52.132;5.442;2022-09-01T02:13:58;2.78;;;1.60;;
71965;SDS011;59836;52.132;5.442;2022-09-01T02:16:26;1.73;;;1.40;;
71965;SDS011;59836;52.132;5.442;2022-09-01T02:18:55;3.38;;;1.63;;
71965;SDS011;59836;52.132;5.442;2022-09-01T02:21:25;2.55;;;1.60;;
71965;SDS011;59836;52.132;5.442;2022-09-01T02:26:49;2.83;;;1.50;;
71965;SDS011;59836;52.132;5.442;2022-09-01T02:29:22;3.95;;;1.60;;
71965;SDS011;59836;52.132;5.442;2022-09-01T02:31:57;3.30;;;1.50;;
71965;SDS011;59836;52.132;5.442;2022-09-01T02:34:24;3.25;;;1.60;;
71965;SDS011;59836;52.132;5.442;2022-09-01T02:36:53;6.60;;;2.03;;
71965;SDS011;59836;52.132;5.442;2022-09-01T02:39:33;1.80;;;1.50;;
71965;SDS011;59836;52.132;5.442;2022-09-01T02:44:53;1.70;;;1.40;;
71965;SDS011;59836;52.132;5.442;2022-09-01T02:47:26;2.53;;;1.73;;
71965;SDS011;59836;52.132;5.442;2022-09-01T02:49:54;2.57;;;1.47;;
71965;SDS011;59836;52.132;5.442;2022-09-01T02:55:09;2.00;;;1.52;;
71965;SDS011;59836;52.132;5.442;2022-09-01T02:57:36;1.95;;;1.70;;
71965;SDS011;59836;52.132;5.442;2022-09-01T03:00:05;3.50;;;1.58;;
71965;SDS011;59836;52.132;5.442;2022-09-01T03:05:29;1.80;;;1.23;;
71965;SDS011;59836;52.132;5.442;2022-09-01T03:11:06;3.80;;;1.77;;
71965;SDS011;59836;52.132;5.442;2022-09-01T03:13:39;4.15;;;1.60;;
71965;SDS011;59836;52.132;5.442;2022-09-01T03:16:07;1.70;;;1.10;;
71965;SDS011;59836;52.132;5.442;2022-09-01T03:18:38;2.30;;;1.40;;
71965;SDS011;59836;52.132;5.442;2022-09-01T03:21:05;2.42;;;1.80;;
71965;SDS011;59836;52.132;5.442;2022-09-01T03:23:33;2.70;;;1.50;;
71965;SDS011;59836;52.132;5.442;2022-09-01T03:25:59;6.00;;;2.30;;
71965;SDS011;59836;52.132;5.442;2022-09-01T03:28:26;2.20;;;1.57;;
71965;SDS011;59836;52.132;5.442;2022-09-01T03:30:54;5.03;;;1.70;;
71965;SDS011;59836;52.132;5.442;2022-09-01T03:33:22;1.95;;;1.75;;
71965;SDS011;59836;52.132;5.442;2022-09-01T03:35:50;2.83;;;1.65;;
71965;SDS011;59836;52.132;5.442;2022-09-01T03:38:17;3.75;;;1.70;;
71965;SDS011;59836;52.132;5.442;2022-09-01T03:41:03;2.60;;;1.60;;
71965;SDS011;59836;52.132;5.442;2022-09-01T03:43:32;2.00;;;1.40;;
71965;SDS011;59836;52.132;5.442;2022-09-01T03:46:10;2.25;;;1.83;;
71965;SDS011;59836;52.132;5.442;2022-09-01T03:48:41;2.47;;;1.60;;
71965;SDS011;59836;52.132;5.442;2022-09-01T03:51:13;2.95;;;1.73;;
71965;SDS011;59836;52.132;5.442;2022-09-01T03:53:42;2.00;;;1.30;;
71965;SDS011;59836;52.132;5.442;2022-09-01T03:56:17;3.75;;;1.40;;
71965;SDS011;59836;52.132;5.442;2022-09-01T03:58:44;4.13;;;1.67;;
71965;SDS011;59836;52.132;5.442;2022-09-01T04:01:13;3.22;;;1.80;;
71965;SDS011;59836;52.132;5.442;2022-09-01T04:03:41;4.80;;;1.77;;
71965;SDS011;59836;52.132;5.442;2022-09-01T04:06:10;5.10;;;2.23;;
71965;SDS011;59836;52.132;5.442;2022-09-01T04:08:38;5.07;;;1.80;;
71965;SDS011;59836;52.132;5.442;2022-09-01T04:13:48;5.13;;;1.90;;
71965;SDS011;59836;52.132;5.442;2022-09-01T04:16:17;4.25;;;1.92;;
71965;SDS011;59836;52.132;5.442;2022-09-01T04:21:47;2.30;;;1.77;;
71965;SDS011;59836;52.132;5.442;2022-09-01T04:27:11;3.00;;;1.63;;
71965;SDS011;59836;52.132;5.442;2022-09-01T04:29:38;4.55;;;2.10;;
71965;SDS011;59836;52.132;5.442;2022-09-01T04:32:06;2.77;;;1.30;;
71965;SDS011;59836;52.132;5.442;2022-09-01T04:34:38;2.70;;;1.83;;
71965;SDS011;59836;52.132;5.442;2022-09-01T04:40:15;3.15;;;2.00;;
71965;SDS011;59836;52.132;5.442;2022-09-01T04:42:46;4.20;;;1.90;;
71965;SDS011;59836;52.132;5.442;2022-09-01T04:45:12;2.90;;;1.70;;
71965;SDS011;59836;52.132;5.442;2022-09-01T04:47:48;3.80;;;1.80;;
71965;SDS011;59836;52.132;5.442;2022-09-01T04:50:16;4.18;;;2.10;;
71965;SDS011;59836;52.132;5.442;2022-09-01T04:52:43;2.15;;;1.85;;
71965;SDS011;59836;52.132;5.442;2022-09-01T04:55:12;2.75;;;2.13;;
71965;SDS011;59836;52.132;5.442;2022-09-01T04:57:56;2.73;;;1.80;;
71965;SDS011;59836;52.132;5.442;2022-09-01T05:00:29;3.10;;;1.80;;
71965;SDS011;59836;52.132;5.442;2022-09-01T05:03:02;2.55;;;1.77;;
71965;SDS011;59836;52.132;5.442;2022-09-01T05:05:44;4.20;;;2.13;;
71965;SDS011;59836;52.132;5.442;2022-09-01T05:08:16;4.50;;;1.98;;
71965;SDS011;59836;52.132;5.442;2022-09-01T05:11:00;4.43;;;1.97;;
71965;SDS011;59836;52.132;5.442;2022-09-01T05:13:31;3.25;;;2.10;;
71965;SDS011;59836;52.132;5.442;2022-09-01T05:16:02;3.67;;;2.35;;
71965;SDS011;59836;52.132;5.442;2022-09-01T05:18:40;3.78;;;2.47;;
71965;SDS011;59836;52.132;5.442;2022-09-01T05:21:14;4.07;;;2.13;;
71965;SDS011;59836;52.132;5.442;2022-09-01T05:23:43;3.83;;;2.20;;
71965;SDS011;59836;52.132;5.442;2022-09-01T05:29:40;2.80;;;2.13;;
71965;SDS011;59836;52.132;5.442;2022-09-01T05:32:06;2.58;;;1.90;;
71965;SDS011;59836;52.132;5.442;2022-09-01T05:34:38;2.45;;;2.08;;
71965;SDS011;59836;52.132;5.442;2022-09-01T05:37:12;5.10;;;2.10;;
71965;SDS011;59836;52.132;5.442;2022-09-01T05:39:40;4.47;;;2.22;;
71965;SDS011;59836;52.132;5.442;2022-09-01T05:42:08;2.88;;;2.30;;
71965;SDS011;59836;52.132;5.442;2022-09-01T05:44:35;3.20;;;2.00;;
71965;SDS011;59836;52.132;5.442;2022-09-01T05:47:04;2.75;;;2.40;;
71965;SDS011;59836;52.132;5.442;2022-09-01T05:49:31;3.60;;;1.70;;
71965;SDS011;59836;52.132;5.442;2022-09-01T05:51:58;2.33;;;1.95;;
71965;SDS011;59836;52.132;5.442;2022-09-01T05:54:25;2.45;;;2.20;;
71965;SDS011;59836;52.132;5.442;2022-09-01T05:56:53;5.15;;;1.95;;
71965;SDS011;59836;52.132;5.442;2022-09-01T05:59:48;3.95;;;1.95;;
71965;SDS011;59836;52.132;5.442;2022-09-01T06:02:20;4.27;;;1.77;;
71965;SDS011;59836;52.132;5.442;2022-09-01T06:07:23;2.85;;;2.25;;
71965;SDS011;59836;52.132;5.442;2022-09-01T06:13:01;3.17;;;2.08;;
71965;SDS011;59836;52.132;5.442;2022-09-01T06:15:30;3.10;;;1.87;;
71965;SDS011;59836;52.132;5.442;2022-09-01T06:17:57;4.88;;;1.80;;
71965;SDS011;59836;52.132;5.442;2022-09-01T06:20:24;2.60;;;1.88;;
71965;SDS011;59836;52.132;5.442;2022-09-01T06:25:43;3.38;;;2.13;;
71965;SDS011;59836;52.132;5.442;2022-09-01T06:28:29;3.00;;;1.60;;
71965;SDS011;59836;52.132;5.442;2022-09-01T06:30:56;2.60;;;1.65;;
71965;SDS011;59836;52.132;5.442;2022-09-01T06:33:22;4.80;;;2.17;;
71965;SDS011;59836;52.132;5.442;2022-09-01T06:39:54;2.42;;;2.03;;
71965;SDS011;59836;52.132;5.442;2022-09-01T06:42:29;4.90;;;1.67;;
71965;SDS011;59836;52.132;5.442;2022-09-01T06:47:53;3.35;;;1.90;;
71965;SDS011;59836;52.132;5.442;2022-09-01T06:50:41;2.13;;;1.45;;
71965;SDS011;59836;52.132;5.442;2022-09-01T06:56:37;4.97;;;1.63;;
71965;SDS011;59836;52.132;5.442;2022-09-01T06:59:34;2.45;;;1.48;;
71965;SDS011;59836;52.132;5.442;2022-09-01T07:02:01;5.47;;;1.88;;
71965;SDS011;59836;52.132;5.442;2022-09-01T07:07:11;3.78;;;2.25;;
71965;SDS011;59836;52.132;5.442;2022-09-01T07:10:16;3.20;;;1.37;;
71965;SDS011;59836;52.132;5.442;2022-09-01T07:12:48;2.75;;;1.40;;
71965;SDS011;59836;52.132;5.442;2022-09-01T07:15:32;2.10;;;1.90;;
71965;SDS011;59836;52.132;5.442;2022-09-01T07:18:24;3.25;;;1.52;;
71965;SDS011;59836;52.132;5.442;2022-09-01T07:20:53;2.75;;;1.60;;
71965;SDS011;59836;52.132;5.442;2022-09-01T07:26:33;3.72;;;1.80;;
71965;SDS011;59836;52.132;5.442;2022-09-01T07:29:02;2.38;;;1.50;;
71965;SDS011;59836;52.132;5.442;2022-09-01T07:31:33;2.38;;;1.40;;
71965;SDS011;59836;52.132;5.442;2022-09-01T07:34:23;3.22;;;1.90;;
71965;SDS011;59836;52.132;5.442;2022-09-01T07:37:11;1.77;;;1.27;;
71965;SDS011;59836;52.132;5.442;2022-09-01T07:43:09;2.45;;;1.45;;
71965;SDS011;59836;52.132;5.442;2022-09-01T07:48:54;2.42;;;1.20;;
71965;SDS011;59836;52.132;5.442;2022-09-01T07:51:41;4.37;;;1.10;;
71965;SDS011;59836;52.132;5.442;2022-09-01T07:54:09;2.45;;;0.90;;
71965;SDS011;59836;52.132;5.442;2022-09-01T07:56:39;3.13;;;1.30;;
71965;SDS011;59836;52.132;5.442;2022-09-01T07:59:20;8.52;;;1.42;;
71965;SDS011;59836;52.132;5.442;2022-09-01T08:01:48;4.15;;;0.90;;
71965;SDS011;59836;52.132;5.442;2022-09-01T08:04:16;2.97;;;1.40;;
71965;SDS011;59836;52.132;5.442;2022-09-01T08:06:48;1.50;;;1.20;;
71965;SDS011;59836;52.132;5.442;2022-09-01T08:09:14;3.38;;;1.40;;
71965;SDS011;59836;52.132;5.442;2022-09-01T08:11:58;2.13;;;1.10;;
71965;SDS011;59836;52.132;5.442;2022-09-01T08:14:28;3.45;;;1.17;;
71965;SDS011;59836;52.132;5.442;2022-09-01T08:16:59;2.43;;;1.10;;
71965;SDS011;59836;52.132;5.442;2022-09-01T08:19:41;3.17;;;1.27;;
71965;SDS011;59836;52.132;5.442;2022-09-01T08:22:19;3.25;;;1.17;;
71965;SDS011;59836;52.132;5.442;2022-09-01T08:24:52;2.58;;;1.40;;
71965;SDS011;59836;52.132;5.442;2022-09-01T08:27:20;2.47;;;1.30;;
71965;SDS011;59836;52.132;5.442;2022-09-01T08:29:46;3.07;;;1.53;;
71965;SDS011;59836;52.132;5.442;2022-09-01T08:32:23;2.85;;;1.08;;
71965;SDS011;59836;52.132;5.442;2022-09-01T08:34:49;2.70;;;1.40;;
71965;SDS011;59836;52.132;5.442;2022-09-01T08:37:16;3.53;;;1.10;;
71965;SDS011;59836;52.132;5.442;2022-09-01T08:39:50;2.67;;;1.20;;
71965;SDS011;59836;52.132;5.442;2022-09-01T08:51:56;2.45;;;0.95;;
71965;SDS011;59836;52.132;5.442;2022-09-01T08:57:20;2.60;;;0.83;;
71965;SDS011;59836;52.132;5.442;2022-09-01T08:59:52;5.25;;;0.95;;
71965;SDS011;59836;52.132;5.442;2022-09-01T09:02:26;6.15;;;1.45;;
71965;SDS011;59836;52.132;5.442;2022-09-01T09:16:42;0.90;;;0.80;;
71965;SDS011;59836;52.132;5.442;2022-09-01T09:19:28;1.88;;;1.05;;
71965;SDS011;59836;52.132;5.442;2022-09-01T09:21:57;2.13;;;1.00;;
71965;SDS011;59836;52.132;5.442;2022-09-01T09:32:58;2.05;;;0.80;;
71965;SDS011;59836;52.132;5.442;2022-09-01T09:35:51;1.08;;;0.80;;
71965;SDS011;59836;52.132;5.442;2022-09-01T09:38:20;2.20;;;1.00;;
71965;SDS011;59836;52.132;5.442;2022-09-01T09:41:00;3.40;;;0.60;;
71965;SDS011;59836;52.132;5.442;2022-09-01T09:43:48;2.10;;;0.85;;
71965;SDS011;59836;52.132;5.442;2022-09-01T09:46:20;3.60;;;0.80;;
71965;SDS011;59836;52.132;5.442;2022-09-01T09:51:43;1.30;;;0.70;;
71965;SDS011;59836;52.132;5.442;2022-09-01T09:54:19;1.58;;;0.88;;
71965;SDS011;59836;52.132;5.442;2022-09-01T10:02:39;1.15;;;0.70;;
71965;SDS011;59836;52.132;5.442;2022-09-01T10:10:59;2.10;;;0.82;;
71965;SDS011;59836;52.132;5.442;2022-09-01T10:13:26;2.08;;;0.63;;
71965;SDS011;59836;52.132;5.442;2022-09-01T10:16:08;1.17;;;0.70;;
71965;SDS011;59836;52.132;5.442;2022-09-01T10:18:47;3.10;;;0.63;;
71965;SDS011;59836;52.132;5.442;2022-09-01T10:21:15;1.73;;;0.60;;
71965;SDS011;59836;52.132;5.442;2022-09-01T10:23:47;6.30;;;1.33;;
71965;SDS011;59836;52.132;5.442;2022-09-01T10:26:15;1.77;;;0.98;;
71965;SDS011;59836;52.132;5.442;2022-09-01T10:28:56;1.05;;;0.65;;
71965;SDS011;59836;52.132;5.442;2022-09-01T10:31:31;1.43;;;0.50;;
71965;SDS011;59836;52.132;5.442;2022-09-01T10:34:00;3.25;;;0.85;;
71965;SDS011;59836;52.132;5.442;2022-09-01T10:36:31;1.35;;;0.85;;
71965;SDS011;59836;52.132;5.442;2022-09-01T10:39:01;1.45;;;0.70;;
71965;SDS011;59836;52.132;5.442;2022-09-01T10:44:10;1.90;;;0.63;;
71965;SDS011;59836;52.132;5.442;2022-09-01T10:46:46;1.00;;;0.68;;
71965;SDS011;59836;52.132;5.442;2022-09-01T10:51:55;1.38;;;0.80;;
71965;SDS011;59836;52.132;5.442;2022-09-01T10:54:51;1.17;;;0.82;;
71965;SDS011;59836;52.132;5.442;2022-09-01T11:00:05;2.20;;;0.80;;
71965;SDS011;59836;52.132;5.442;2022-09-01T11:03:31;1.80;;;1.30;;
71965;SDS011;59836;52.132;5.442;2022-09-01T11:06:06;1.70;;;0.90;;
71965;SDS011;59836;52.132;5.442;2022-09-01T11:08:55;2.55;;;0.80;;
71965;SDS011;59836;52.132;5.442;2022-09-01T11:11:28;2.57;;;0.40;;
71965;SDS011;59836;52.132;5.442;2022-09-01T11:14:04;1.35;;;0.60;;
71965;SDS011;59836;52.132;5.442;2022-09-01T11:17:09;2.10;;;0.70;;
71965;SDS011;59836;52.132;5.442;2022-09-01T11:19:40;1.33;;;0.50;;
71965;SDS011;59836;52.132;5.442;2022-09-01T11:27:08;0.77;;;0.60;;
71965;SDS011;59836;52.132;5.442;2022-09-01T11:29:49;3.67;;;0.60;;
71965;SDS011;59836;52.132;5.442;2022-09-01T11:32:21;1.02;;;0.60;;
71965;SDS011;59836;52.132;5.442;2022-09-01T11:34:52;0.95;;;0.73;;
71965;SDS011;59836;52.132;5.442;2022-09-01T11:37:22;3.23;;;0.70;;
71965;SDS011;59836;52.132;5.442;2022-09-01T11:39:53;2.05;;;0.40;;
71965;SDS011;59836;52.132;5.442;2022-09-01T11:42:32;2.58;;;0.50;;
71965;SDS011;59836;52.132;5.442;2022-09-01T11:45:15;3.15;;;0.77;;
71965;SDS011;59836;52.132;5.442;2022-09-01T11:47:48;1.23;;;0.63;;
71965;SDS011;59836;52.132;5.442;2022-09-01T11:50:22;1.00;;;0.53;;
71965;SDS011;59836;52.132;5.442;2022-09-01T11:53:00;1.30;;;0.60;;
71965;SDS011;59836;52.132;5.442;2022-09-01T11:55:38;2.35;;;0.80;;
71965;SDS011;59836;52.132;5.442;2022-09-01T11:58:28;0.85;;;0.50;;
71965;SDS011;59836;52.132;5.442;2022-09-01T12:03:48;0.90;;;0.60;;
71965;SDS011;59836;52.132;5.442;2022-09-01T12:06:23;1.08;;;0.65;;
71965;SDS011;59836;52.132;5.442;2022-09-01T12:08:59;1.33;;;0.60;;
71965;SDS011;59836;52.132;5.442;2022-09-01T12:11:46;3.13;;;0.80;;
71965;SDS011;59836;52.132;5.442;2022-09-01T12:14:20;1.38;;;0.90;;
71965;SDS011;59836;52.132;5.442;2022-09-01T12:17:02;2.60;;;0.63;;
71965;SDS011;59836;52.132;5.442;2022-09-01T12:19:31;1.98;;;0.70;;
71965;SDS011;59836;52.132;5.442;2022-09-01T12:22:06;1.15;;;0.70;;
71965;SDS011;59836;52.132;5.442;2022-09-01T12:24:43;1.13;;;0.80;;
71965;SDS011;59836;52.132;5.442;2022-09-01T12:27:12;2.20;;;0.57;;
71965;SDS011;59836;52.132;5.442;2022-09-01T12:29:39;1.13;;;0.63;;
71965;SDS011;59836;52.132;5.442;2022-09-01T12:32:06;3.10;;;0.70;;
71965;SDS011;59836;52.132;5.442;2022-09-01T12:34:41;1.45;;;1.00;;
71965;SDS011;59836;52.132;5.442;2022-09-01T12:37:20;1.25;;;0.60;;
71965;SDS011;59836;52.132;5.442;2022-09-01T12:39:52;1.75;;;0.85;;
71965;SDS011;59836;52.132;5.442;2022-09-01T12:42:23;1.40;;;0.80;;
71965;SDS011;59836;52.132;5.442;2022-09-01T12:45:09;1.40;;;0.60;;
71965;SDS011;59836;52.132;5.442;2022-09-01T12:52:48;4.93;;;1.20;;
71965;SDS011;59836;52.132;5.442;2022-09-01T12:55:19;1.30;;;0.70;;
71965;SDS011;59836;52.132;5.442;2022-09-01T12:58:08;0.82;;;0.70;;
71965;SDS011;59836;52.132;5.442;2022-09-01T13:00:36;2.08;;;0.70;;
71965;SDS011;59836;52.132;5.442;2022-09-01T13:03:19;1.98;;;0.70;;
71965;SDS011;59836;52.132;5.442;2022-09-01T13:05:50;3.25;;;0.82;;
71965;SDS011;59836;52.132;5.442;2022-09-01T13:08:19;4.20;;;0.70;;
71965;SDS011;59836;52.132;5.442;2022-09-01T13:10:58;5.47;;;0.60;;
71965;SDS011;59836;52.132;5.442;2022-09-01T13:13:28;2.92;;;0.88;;
71965;SDS011;59836;52.132;5.442;2022-09-01T13:15:56;2.55;;;0.73;;
71965;SDS011;59836;52.132;5.442;2022-09-01T13:18:29;2.05;;;0.80;;
71965;SDS011;59836;52.132;5.442;2022-09-01T13:20:56;1.00;;;0.70;;
71965;SDS011;59836;52.132;5.442;2022-09-01T13:23:23;1.17;;;0.70;;
71965;SDS011;59836;52.132;5.442;2022-09-01T13:25:50;4.15;;;0.70;;
71965;SDS011;59836;52.132;5.442;2022-09-01T13:28:17;3.60;;;0.90;;
71965;SDS011;59836;52.132;5.442;2022-09-01T13:30:44;1.75;;;0.90;;
71965;SDS011;59836;52.132;5.442;2022-09-01T13:33:38;2.00;;;0.90;;
71965;SDS011;59836;52.132;5.442;2022-09-01T13:36:24;2.80;;;0.80;;
71965;SDS011;59836;52.132;5.442;2022-09-01T13:39:12;2.30;;;1.00;;
71965;SDS011;59836;52.132;5.442;2022-09-01T13:41:38;2.47;;;0.70;;
71965;SDS011;59836;52.132;5.442;2022-09-01T13:44:06;1.83;;;0.90;;
71965;SDS011;59836;52.132;5.442;2022-09-01T13:46:35;3.77;;;0.83;;
71965;SDS011;59836;52.132;5.442;2022-09-01T13:49:22;1.73;;;0.85;;
71965;SDS011;59836;52.132;5.442;2022-09-01T13:52:08;1.52;;;0.80;;
71965;SDS011;59836;52.132;5.442;2022-09-01T13:54:35;2.08;;;0.90;;
71965;SDS011;59836;52.132;5.442;2022-09-01T13:57:01;2.33;;;1.00;;
71965;SDS011;59836;52.132;5.442;2022-09-01T13:59:37;1.77;;;0.87;;
71965;SDS011;59836;52.132;5.442;2022-09-01T14:02:21;1.90;;;0.93;;
71965;SDS011;59836;52.132;5.442;2022-09-01T14:04:47;1.65;;;0.85;;
71965;SDS011;59836;52.132;5.442;2022-09-01T14:10:00;1.13;;;1.02;;
71965;SDS011;59836;52.132;5.442;2022-09-01T14:12:26;1.93;;;0.50;;
71965;SDS011;59836;52.132;5.442;2022-09-01T14:15:06;1.42;;;0.82;;
71965;SDS011;59836;52.132;5.442;2022-09-01T14:17:49;1.25;;;1.00;;
71965;SDS011;59836;52.132;5.442;2022-09-01T14:20:21;1.38;;;0.60;;
71965;SDS011;59836;52.132;5.442;2022-09-01T14:22:50;3.67;;;0.90;;
71965;SDS011;59836;52.132;5.442;2022-09-01T14:25:20;2.60;;;0.90;;
71965;SDS011;59836;52.132;5.442;2022-09-01T14:27:47;2.05;;;0.95;;
71965;SDS011;59836;52.132;5.442;2022-09-01T14:32:48;1.17;;;1.02;;
71965;SDS011;59836;52.132;5.442;2022-09-01T14:35:16;1.60;;;1.10;;
71965;SDS011;59836;52.132;5.442;2022-09-01T14:37:44;1.00;;;0.80;;
71965;SDS011;59836;52.132;5.442;2022-09-01T14:40:15;1.40;;;0.80;;
71965;SDS011;59836;52.132;5.442;2022-09-01T14:42:46;1.40;;;0.90;;
71965;SDS011;59836;52.132;5.442;2022-09-01T14:45:18;2.20;;;0.75;;
71965;SDS011;59836;52.132;5.442;2022-09-01T14:47:53;1.90;;;0.68;;
71965;SDS011;59836;52.132;5.442;2022-09-01T14:50:21;2.50;;;0.73;;
71965;SDS011;59836;52.132;5.442;2022-09-01T14:52:50;1.95;;;0.70;;
71965;SDS011;59836;52.132;5.442;2022-09-01T14:55:19;1.20;;;0.70;;
71965;SDS011;59836;52.132;5.442;2022-09-01T14:57:47;3.80;;;1.02;;
71965;SDS011;59836;52.132;5.442;2022-09-01T15:02:46;1.00;;;0.80;;
71965;SDS011;59836;52.132;5.442;2022-09-01T15:05:13;2.45;;;0.90;;
71965;SDS011;59836;52.132;5.442;2022-09-01T15:07:40;2.25;;;1.08;;
71965;SDS011;59836;52.132;5.442;2022-09-01T15:10:08;1.33;;;0.93;;
71965;SDS011;59836;52.132;5.442;2022-09-01T15:12:41;1.88;;;0.80;;
71965;SDS011;59836;52.132;5.442;2022-09-01T15:15:08;2.27;;;0.70;;
71965;SDS011;59836;52.132;5.442;2022-09-01T15:17:35;1.90;;;0.80;;
71965;SDS011;59836;52.132;5.442;2022-09-01T15:20:08;2.25;;;0.75;;
71965;SDS011;59836;52.132;5.442;2022-09-01T15:22:58;2.15;;;0.60;;
71965;SDS011;59836;52.132;5.442;2022-09-01T15:25:24;2.15;;;0.90;;
71965;SDS011;59836;52.132;5.442;2022-09-01T15:27:51;0.93;;;0.70;;
71965;SDS011;59836;52.132;5.442;2022-09-01T15:30:18;2.97;;;0.80;;
71965;SDS011;59836;52.132;5.442;2022-09-01T15:32:45;1.85;;;0.80;;
71965;SDS011;59836;52.132;5.442;2022-09-01T15:35:14;2.28;;;0.82;;
71965;SDS011;59836;52.132;5.442;2022-09-01T15:37:41;4.85;;;1.00;;
71965;SDS011;59836;52.132;5.442;2022-09-01T15:40:08;3.47;;;0.60;;
71965;SDS011;59836;52.132;5.442;2022-09-01T15:42:35;2.80;;;0.95;;
71965;SDS011;59836;52.132;5.442;2022-09-01T15:45:03;2.10;;;1.00;;
71965;SDS011;59836;52.132;5.442;2022-09-01T15:47:32;2.20;;;0.80;;
71965;SDS011;59836;52.132;5.442;2022-09-01T15:49:59;2.85;;;0.95;;
71965;SDS011;59836;52.132;5.442;2022-09-01T15:52:26;1.77;;;0.90;;
71965;SDS011;59836;52.132;5.442;2022-09-01T15:54:55;1.70;;;0.90;;
71965;SDS011;59836;52.132;5.442;2022-09-01T15:57:21;2.38;;;0.70;;
71965;SDS011;59836;52.132;5.442;2022-09-01T16:02:20;1.60;;;0.80;;
71965;SDS011;59836;52.132;5.442;2022-09-01T16:04:52;2.83;;;0.70;;
71965;SDS011;59836;52.132;5.442;2022-09-01T16:07:20;2.22;;;0.70;;
71965;SDS011;59836;52.132;5.442;2022-09-01T16:09:51;2.85;;;0.80;;
71965;SDS011;59836;52.132;5.442;2022-09-01T16:12:23;2.92;;;1.17;;
71965;SDS011;59836;52.132;5.442;2022-09-01T16:14:52;4.38;;;0.68;;
71965;SDS011;59836;52.132;5.442;2022-09-01T16:17:35;1.10;;;0.60;;
71965;SDS011;59836;52.132;5.442;2022-09-01T16:20:17;2.15;;;0.90;;
71965;SDS011;59836;52.132;5.442;2022-09-01T16:22:56;1.80;;;0.80;;
71965;SDS011;59836;52.132;5.442;2022-09-01T16:25:38;2.15;;;0.63;;
71965;SDS011;59836;52.132;5.442;2022-09-01T16:28:09;1.20;;;0.60;;
71965;SDS011;59836;52.132;5.442;2022-09-01T16:30:50;2.70;;;0.80;;
71965;SDS011;59836;52.132;5.442;2022-09-01T16:33:19;2.35;;;0.88;;
71965;SDS011;59836;52.132;5.442;2022-09-01T16:35:50;2.33;;;0.85;;
71965;SDS011;59836;52.132;5.442;2022-09-01T16:38:35;1.63;;;0.85;;
71965;SDS011;59836;52.132;5.442;2022-09-01T16:44:26;1.60;;;0.80;;
71965;SDS011;59836;52.132;5.442;2022-09-01T16:47:11;1.40;;;0.80;;
71965;SDS011;59836;52.132;5.442;2022-09-01T16:58:25;2.40;;;1.60;;
71965;SDS011;59836;52.132;5.442;2022-09-01T17:01:09;3.38;;;1.40;;
71965;SDS011;59836;52.132;5.442;2022-09-01T17:12:46;4.20;;;1.93;;
71965;SDS011;59836;52.132;5.442;2022-09-01T17:18:33;5.75;;;1.45;;
71965;SDS011;59836;52.132;5.442;2022-09-01T17:23:49;1.15;;;0.82;;
71965;SDS011;59836;52.132;5.442;2022-09-01T17:26:45;2.77;;;1.20;;
71965;SDS011;59836;52.132;5.442;2022-09-01T17:29:15;1.58;;;1.00;;
71965;SDS011;59836;52.132;5.442;2022-09-01T17:32:02;1.80;;;1.35;;
71965;SDS011;59836;52.132;5.442;2022-09-01T17:37:35;1.90;;;1.10;;
71965;SDS011;59836;52.132;5.442;2022-09-01T17:40:22;0.97;;;0.70;;
71965;SDS011;59836;52.132;5.442;2022-09-01T17:42:58;2.95;;;1.05;;
71965;SDS011;59836;52.132;5.442;2022-09-01T17:45:46;3.40;;;1.27;;
71965;SDS011;59836;52.132;5.442;2022-09-01T17:51:24;1.80;;;1.00;;
71965;SDS011;59836;52.132;5.442;2022-09-01T17:57:15;3.35;;;1.05;;
71965;SDS011;59836;52.132;5.442;2022-09-01T18:00:05;3.03;;;1.20;;
71965;SDS011;59836;52.132;5.442;2022-09-01T18:05:47;1.45;;;1.10;;
71965;SDS011;59836;52.132;5.442;2022-09-01T18:08:35;2.83;;;1.20;;
71965;SDS011;59836;52.132;5.442;2022-09-01T18:14:08;2.13;;;1.08;;
71965;SDS011;59836;52.132;5.442;2022-09-01T18:16:46;1.00;;;0.90;;
71965;SDS011;59836;52.132;5.442;2022-09-01T18:22:28;2.47;;;1.10;;
71965;SDS011;59836;52.132;5.442;2022-09-01T18:25:02;3.78;;;1.17;;
71965;SDS011;59836;52.132;5.442;2022-09-01T18:27:36;4.90;;;0.98;;
71965;SDS011;59836;52.132;5.442;2022-09-01T18:30:15;1.52;;;0.95;;
71965;SDS011;59836;52.132;5.442;2022-09-01T18:33:07;1.85;;;1.00;;
71965;SDS011;59836;52.132;5.442;2022-09-01T18:35:45;3.90;;;1.20;;
71965;SDS011;59836;52.132;5.442;2022-09-01T18:38:25;2.17;;;1.13;;
71965;SDS011;59836;52.132;5.442;2022-09-01T18:44:38;2.50;;;1.05;;
71965;SDS011;59836;52.132;5.442;2022-09-01T18:47:34;2.33;;;0.90;;
71965;SDS011;59836;52.132;5.442;2022-09-01T19:04:18;1.40;;;0.80;;
71965;SDS011;59836;52.132;5.442;2022-09-01T19:15:57;5.60;;;1.15;;